Time,TemperatureF,DewpointF,PressureIn,WindDirection,WindDirectionDegrees,WindSpeedMPH,WindSpeedGustMPH,Humidity,HourlyPrecipIn,Conditions,Clouds,dailyrainin,SoftwareType,DateUTC
2013-07-23 00:01:00,67.0,65.0,29.84,ESE,108,0.0,4.0,93,0.31,,,0.31,,2013-07-23 04:01:00,
2013-07-23 00:11:00,67.0,65.0,29.83,SE,135,1.0,4.0,94,0.28,,,0.43,,2013-07-23 04:11:00,
2013-07-23 00:32:00,67.0,66.0,29.82,ESE,111,0.0,2.0,95,0.24,,,0.46,,2013-07-23 04:32:00,
2013-07-23 00:43:00,67.0,66.0,29.81,East,85,0.0,1.0,95,0.21,,,0.46,,2013-07-23 04:43:00,
2013-07-23 00:53:00,67.0,66.0,29.81,South,170,0.0,0.0,95,0.14,,,0.46,,2013-07-23 04:53:00,
2013-07-23 01:02:00,67.0,66.0,29.80,ESE,123,0.0,1.0,96,0.03,,,0.46,,2013-07-23 05:02:00,
2013-07-23 01:11:00,67.0,66.0,29.80,ESE,123,0.0,1.0,96,0.03,,,0.46,,2013-07-23 05:11:00,
2013-07-23 01:22:00,67.0,66.0,29.79,South,172,0.0,2.0,96,0.00,,,0.46,,2013-07-23 05:22:00,
2013-07-23 01:33:00,67.0,66.0,29.79,ESE,119,0.0,3.0,95,0.00,,,0.46,,2013-07-23 05:33:00,
2013-07-23 01:44:00,67.0,66.0,29.79,ESE,119,0.0,3.0,95,0.00,,,0.46,,2013-07-23 05:44:00,
2013-07-23 01:52:00,67.0,66.0,29.79,ESE,120,0.0,2.0,95,0.00,,,0.46,,2013-07-23 05:52:00,
2013-07-23 02:01:00,67.0,66.0,29.79,ESE,120,0.0,2.0,95,0.00,,,0.46,,2013-07-23 06:01:00,
2013-07-23 02:11:00,67.0,66.0,29.79,West,267,1.0,3.0,95,0.00,,,0.46,,2013-07-23 06:11:00,
2013-07-23 02:22:00,67.0,66.0,29.79,WNW,298,1.0,3.0,96,0.00,,,0.46,,2013-07-23 06:22:00,
2013-07-23 02:33:00,68.0,67.0,29.79,NW,305,1.0,5.0,96,0.00,,,0.46,,2013-07-23 06:33:00,
2013-07-23 02:42:00,68.0,67.0,29.79,NW,305,1.0,5.0,96,0.00,,,0.46,,2013-07-23 06:42:00,
2013-07-23 02:52:00,68.0,67.0,29.78,WNW,300,0.0,3.0,95,0.01,,,0.47,,2013-07-23 06:52:00,
2013-07-23 03:02:00,68.0,67.0,29.78,WNW,300,0.0,2.0,96,0.01,,,0.47,,2013-07-23 07:02:00,
2013-07-23 03:12:00,68.0,67.0,29.78,WNW,300,0.0,2.0,96,0.01,,,0.47,,2013-07-23 07:12:00,
2013-07-23 03:22:00,68.0,67.0,29.78,WNW,300,0.0,1.0,95,0.01,,,0.47,,2013-07-23 07:22:00,
2013-07-23 03:33:00,68.0,67.0,29.77,WNW,300,0.0,0.0,95,0.01,,,0.47,,2013-07-23 07:33:00,
2013-07-23 03:42:00,68.0,67.0,29.77,WNW,300,0.0,0.0,95,0.01,,,0.47,,2013-07-23 07:42:00,
2013-07-23 03:52:00,67.0,66.0,29.77,WNW,300,0.0,0.0,95,0.00,,,0.47,,2013-07-23 07:52:00,
2013-07-23 04:01:00,67.0,66.0,29.77,WNW,300,0.0,0.0,95,0.00,,,0.47,,2013-07-23 08:01:00,
2013-07-23 04:11:00,68.0,67.0,29.76,WNW,300,0.0,0.0,96,0.00,,,0.47,,2013-07-23 08:11:00,
2013-07-23 04:33:00,68.0,67.0,29.75,WNW,300,0.0,0.0,96,0.00,,,0.47,,2013-07-23 08:33:00,
2013-07-23 04:43:00,68.0,67.0,29.76,WNW,300,0.0,0.0,96,0.00,,,0.47,,2013-07-23 08:43:00,
2013-07-23 04:52:00,68.0,67.0,29.75,WNW,300,0.0,0.0,96,0.00,,,0.47,,2013-07-23 08:52:00,
2013-07-23 05:11:00,68.0,67.0,29.75,WNW,300,0.0,1.0,96,0.00,,,0.47,,2013-07-23 09:11:00,
2013-07-23 05:33:00,68.0,67.0,29.75,WNW,300,0.0,0.0,96,0.00,,,0.47,,2013-07-23 09:33:00,
2013-07-23 05:42:00,68.0,67.0,29.75,WNW,300,0.0,0.0,96,0.00,,,0.47,,2013-07-23 09:42:00,
2013-07-23 05:53:00,68.0,67.0,29.74,WNW,300,0.0,0.0,96,0.00,,,0.47,,2013-07-23 09:53:00,
2013-07-23 06:02:00,68.0,67.0,29.74,WNW,300,0.0,0.0,96,0.00,,,0.47,,2013-07-23 10:02:00,
2013-07-23 06:11:00,68.0,67.0,29.75,WNW,300,0.0,2.0,96,0.00,,,0.47,,2013-07-23 10:11:00,
2013-07-23 06:22:00,68.0,67.0,29.75,WNW,300,0.0,2.0,96,0.00,,,0.47,,2013-07-23 10:22:00,
2013-07-23 06:32:00,68.0,67.0,29.75,WNW,300,0.0,2.0,96,0.00,,,0.47,,2013-07-23 10:32:00,
2013-07-23 06:44:00,68.0,67.0,29.75,WNW,300,0.0,1.0,96,0.00,,,0.47,,2013-07-23 10:44:00,
2013-07-23 06:52:00,68.0,67.0,29.75,WNW,300,0.0,0.0,96,0.00,,,0.47,,2013-07-23 10:52:00,
2013-07-23 07:02:00,68.0,67.0,29.74,WNW,300,0.0,0.0,97,0.00,,,0.47,,2013-07-23 11:02:00,
2013-07-23 07:12:00,68.0,67.0,29.74,WNW,300,0.0,0.0,97,0.00,,,0.47,,2013-07-23 11:12:00,
2013-07-23 07:32:00,68.0,67.0,29.74,WNW,300,0.0,1.0,97,0.00,,,0.47,,2013-07-23 11:32:00,
2013-07-23 07:43:00,68.0,67.0,29.75,WNW,300,0.0,0.0,96,0.00,,,0.47,,2013-07-23 11:43:00,
2013-07-23 07:52:00,69.0,68.0,29.75,WNW,300,0.0,0.0,97,0.00,,,0.47,,2013-07-23 11:52:00,
2013-07-23 08:02:00,69.0,68.0,29.75,WNW,300,0.0,0.0,97,0.00,,,0.47,,2013-07-23 12:02:00,
2013-07-23 08:11:00,69.0,68.0,29.75,WNW,300,0.0,0.0,97,0.00,,,0.47,,2013-07-23 12:11:00,
2013-07-23 08:43:00,71.0,69.0,29.74,WNW,300,0.0,1.0,92,0.00,,,0.47,,2013-07-23 12:43:00,
2013-07-23 09:01:00,72.0,69.0,29.74,WNW,300,0.0,1.0,91,0.00,,,0.47,,2013-07-23 13:01:00,
2013-07-23 09:11:00,72.0,69.0,29.73,WNW,300,0.0,1.0,90,0.00,,,0.47,,2013-07-23 13:11:00,
2013-07-23 09:22:00,72.0,69.0,29.73,WNW,300,0.0,1.0,90,0.00,,,0.47,,2013-07-23 13:22:00,
2013-07-23 09:32:00,72.0,69.0,29.73,WNW,300,0.0,1.0,90,0.00,,,0.47,,2013-07-23 13:32:00,
2013-07-23 09:43:00,73.0,69.0,29.72,WNW,302,0.0,2.0,88,0.00,,,0.47,,2013-07-23 13:43:00,
2013-07-23 09:52:00,74.0,69.0,29.72,WNW,285,2.0,4.0,84,0.00,,,0.47,,2013-07-23 13:52:00,
2013-07-23 10:02:00,74.0,69.0,29.72,WNW,285,2.0,4.0,84,0.00,,,0.47,,2013-07-23 14:02:00,
2013-07-23 10:12:00,75.0,67.0,29.73,WNW,293,0.0,5.0,77,0.00,,,0.47,,2013-07-23 14:12:00,
2013-07-23 10:33:00,76.0,67.0,29.73,WNW,293,0.0,4.0,75,0.00,,,0.47,,2013-07-23 14:33:00,
2013-07-23 10:44:00,78.0,68.0,29.73,WNW,289,0.0,5.0,71,0.00,,,0.47,,2013-07-23 14:44:00,
2013-07-23 10:54:00,78.0,67.0,29.73,WNW,300,1.0,4.0,70,0.01,,,0.48,,2013-07-23 14:54:00,
2013-07-23 11:03:00,78.0,67.0,29.73,WNW,300,1.0,4.0,70,0.01,,,0.48,,2013-07-23 15:03:00,
2013-07-23 11:11:00,79.0,68.0,29.73,SSW,204,1.0,6.0,69,0.01,,,0.48,,2013-07-23 15:11:00,
2013-07-23 11:24:00,80.0,68.0,29.73,West,259,2.0,7.0,66,0.01,,,0.48,,2013-07-23 15:24:00,
2013-07-23 11:32:00,80.0,68.0,29.72,SW,215,2.0,7.0,66,0.01,,,0.48,,2013-07-23 15:32:00,
2013-07-23 11:43:00,80.0,68.0,29.72,SW,215,2.0,7.0,66,0.01,,,0.48,,2013-07-23 15:43:00,
2013-07-23 11:52:00,81.0,67.0,29.72,WNW,298,1.0,8.0,63,0.00,,,0.48,,2013-07-23 15:52:00,
2013-07-23 12:01:00,81.0,67.0,29.72,WNW,298,1.0,8.0,63,0.00,,,0.48,,2013-07-23 16:01:00,
2013-07-23 12:12:00,81.0,67.0,29.72,WNW,297,2.0,6.0,62,0.00,,,0.48,,2013-07-23 16:12:00,
2013-07-23 12:33:00,81.0,67.0,29.71,WNW,295,1.0,9.0,63,0.00,,,0.48,,2013-07-23 16:33:00,
2013-07-23 12:43:00,82.0,68.0,29.70,SSW,200,2.0,8.0,62,0.00,,,0.48,,2013-07-23 16:43:00,
2013-07-23 12:52:00,84.0,69.0,29.70,SW,232,2.0,7.0,60,0.00,,,0.48,,2013-07-23 16:52:00,
2013-07-23 13:11:00,83.0,66.0,29.70,NW,318,5.0,11.0,57,0.00,,,0.48,,2013-07-23 17:11:00,
2013-07-23 13:22:00,83.0,67.0,29.70,West,272,2.0,11.0,58,0.00,,,0.48,,2013-07-23 17:22:00,
2013-07-23 13:32:00,83.0,67.0,29.70,West,272,2.0,11.0,58,0.00,,,0.48,,2013-07-23 17:32:00,
2013-07-23 13:42:00,83.0,70.0,29.69,North,350,0.0,5.0,65,0.00,,,0.48,,2013-07-23 17:42:00,
2013-07-23 13:57:00,83.0,70.0,29.68,WNW,290,0.0,2.0,65,0.00,,,0.48,,2013-07-23 17:57:00,
2013-07-23 14:13:00,83.0,68.0,29.67,WNW,282,2.0,5.0,60,0.00,,,0.48,,2013-07-23 18:13:00,
2013-07-23 14:26:00,85.0,65.0,29.67,SW,223,5.0,11.0,52,0.00,,,0.48,,2013-07-23 18:26:00,
2013-07-23 14:48:00,85.0,65.0,29.67,West,277,6.0,13.0,52,0.00,,,0.48,,2013-07-23 18:48:00,
2013-07-23 14:58:00,86.0,65.0,29.67,SSW,198,5.0,12.0,50,0.00,,,0.48,,2013-07-23 18:58:00,
2013-07-23 15:15:00,85.0,65.0,29.67,SW,224,5.0,17.0,51,0.00,,,0.48,,2013-07-23 19:15:00,
2013-07-23 15:47:00,84.0,64.0,29.66,WSW,255,7.0,15.0,51,0.00,,,0.48,,2013-07-23 19:47:00,
2013-07-23 15:55:00,85.0,62.0,29.66,WNW,302,6.0,17.0,46,0.00,,,0.48,,2013-07-23 19:55:00,
2013-07-23 16:07:00,85.0,62.0,29.66,WSW,246,9.0,17.0,47,0.00,,,0.48,,2013-07-23 20:07:00,
2013-07-23 16:14:00,85.0,62.0,29.66,WSW,246,9.0,17.0,47,0.00,,,0.48,,2013-07-23 20:14:00,
2013-07-23 16:24:00,85.0,62.0,29.65,West,271,6.0,20.0,46,0.00,,,0.48,,2013-07-23 20:24:00,
2013-07-23 16:46:00,84.0,62.0,29.65,WSW,252,6.0,19.0,48,0.00,,,0.48,,2013-07-23 20:46:00,
2013-07-23 16:59:00,84.0,63.0,29.65,West,271,7.0,18.0,49,0.00,,,0.48,,2013-07-23 20:59:00,
2013-07-23 17:05:00,84.0,63.0,29.65,West,271,7.0,18.0,49,0.00,,,0.48,,2013-07-23 21:05:00,
2013-07-23 17:15:00,84.0,62.0,29.65,NW,310,7.0,18.0,48,0.00,,,0.48,,2013-07-23 21:15:00,
2013-07-23 17:24:00,82.0,62.0,29.66,WNW,286,11.0,18.0,51,0.00,,,0.48,,2013-07-23 21:24:00,
2013-07-23 17:47:00,82.0,64.0,29.65,WNW,298,7.0,16.0,54,0.00,,,0.48,,2013-07-23 21:47:00,
2013-07-23 17:57:00,82.0,65.0,29.66,West,279,7.0,18.0,56,0.00,,,0.48,,2013-07-23 21:57:00,
2013-07-23 18:06:00,81.0,66.0,29.65,WNW,289,6.0,21.0,61,0.00,,,0.48,,2013-07-23 22:06:00,
2013-07-23 18:13:00,81.0,66.0,29.65,WNW,289,6.0,21.0,61,0.00,,,0.48,,2013-07-23 22:13:00,
2013-07-23 18:35:00,80.0,66.0,29.65,WNW,297,9.0,17.0,62,0.00,,,0.48,,2013-07-23 22:35:00,
2013-07-23 18:47:00,80.0,67.0,29.65,WSW,256,4.0,14.0,64,0.00,,,0.48,,2013-07-23 22:47:00,
2013-07-23 19:06:00,80.0,67.0,29.65,NW,311,5.0,14.0,65,0.00,,,0.48,,2013-07-23 23:06:00,
2013-07-23 19:36:00,79.0,67.0,29.66,WNW,303,6.0,13.0,67,0.00,,,0.48,,2013-07-23 23:36:00,
2013-07-23 19:45:00,78.0,67.0,29.66,WSW,252,4.0,13.0,68,0.00,,,0.48,,2013-07-23 23:45:00,
2013-07-23 20:00:00,78.0,67.0,29.66,WSW,248,5.0,14.0,69,0.00,,,0.48,,2013-07-24 00:00:00,
2013-07-23 20:10:00,77.0,67.0,29.66,West,266,1.0,15.0,72,0.00,,,0.48,,2013-07-24 00:10:00,
2013-07-23 20:26:00,77.0,67.0,29.65,West,267,6.0,12.0,71,0.00,,,0.48,,2013-07-24 00:26:00,
2013-07-23 20:34:00,77.0,67.0,29.65,West,263,4.0,10.0,72,0.00,,,0.48,,2013-07-24 00:34:00,
2013-07-23 20:58:00,76.0,66.0,29.65,WSW,255,4.0,13.0,72,0.00,,,0.48,,2013-07-24 00:58:00,
2013-07-23 21:04:00,76.0,66.0,29.65,WSW,242,4.0,12.0,72,0.00,,,0.48,,2013-07-24 01:04:00,
2013-07-23 21:15:00,76.0,66.0,29.65,WSW,242,4.0,12.0,72,0.00,,,0.48,,2013-07-24 01:15:00,
2013-07-23 21:34:00,76.0,67.0,29.66,WSW,251,4.0,10.0,73,0.00,,,0.48,,2013-07-24 01:34:00,
2013-07-23 21:45:00,75.0,67.0,29.67,NNW,337,9.0,18.0,75,0.00,,,0.48,,2013-07-24 01:45:00,
2013-07-23 22:02:00,72.0,64.0,29.69,NNW,327,7.0,17.0,77,0.00,,,0.48,,2013-07-24 02:02:00,
2013-07-23 23:06:00,69.0,60.0,29.71,NW,320,2.0,14.0,73,0.00,,,0.48,,2013-07-24 03:06:00,
2013-07-23 23:13:00,69.0,59.0,29.71,NW,306,3.0,15.0,71,0.00,,,0.48,,2013-07-24 03:13:00,
2013-07-23 23:38:00,69.0,59.0,29.72,WNW,291,2.0,8.0,70,0.00,,,0.26,,2013-07-24 03:38:00,